Pikeville, TN

7:49 AM CDT on May 23, 2015 (GMT -0500)
Bledsoe Co 911 CNT | | Change Station
CLOSE
Current Station
Personal Weather Station
Location: Pikeville, TN
Elevation: 879 ft
Nearby Weather Stations

Elev 879 ft 35.61 °N, 85.19 °W | Updated 3 minutes ago

Partly Cloudy
Partly Cloudy
64.8 °F
Feels Like 64.8 °F
N
1.7
Wind Variable Wind from WSW

Today
High -- | Low -- °F
--% Chance of Precip.
Yesterday
High -- | Low -- °F
Precip. -- in
5:30 AM 7:44 PM
Waxing Crescent, 29% visible
Pressure 30.37 in
Visibility 10.0 miles
Clouds Clear
Dew Point 54 °F
Humidity 67%
Rainfall 0.00 in
Snow Depth Not available.
UV 1 out of 12
Pollen 7.30 out of 12
Air Quality Not available.
Flu Activity Sporadic
METAR KCSV 231153Z AUTO 00000KT 10SM CLR 11/09 A3039 RMK AO2 SLP282 T01060089 10117 20072 53021

More Conditions Fewer Conditions

Pressure 30.37 in
Visibility 10.0 miles
Clouds Clear
Dew Point 54 °F
Humidity 67%
Rainfall 0.00 in
Snow Depth Not available.
UV 1 out of 12
Pollen 7.30 out of 12
Air Quality Not available.
Flu Activity Sporadic
METAR KCSV 231153Z AUTO 00000KT 10SM CLR 11/09 A3039 RMK AO2 SLP282 T01060089 10117 20072 53021

More Conditions Fewer Conditions

10-Day Weather Forecast

Almanac

Astronomy

May. 23, 2015 Rise Set
Actual Time
Civil Twilight
Nautical Twilight
Astronomical Twilight
Moon
Length of Visible Light
Length of Day
Tomorrow will be .
, % of the Moon is Illuminated

Today's Extremes

State Highs State Lows

Community

WunderPhotos

Upload Photos

1,823,442 photos uploaded!

WunderBlogs® & News

Nearby

Air Quality

  Air Quality AQ Index Pollutant
Not available.

Snow Depth

Station Depth Elevation

Earthquake Activity

City Distance Mag. Time & Date
Minimum magnitude displayed is 2.5.

Coastal Water Temperatures

Place Temperature

Stations

Nearby Weather Stations

Station Location Temp. Windchill Dew Point Humidity Wind Precip. Elev Updated Type